createdAt,value
2023-02-03T00:01:22.994Z,15.73
2023-02-03T00:03:51.059Z,14.63
2023-02-03T00:06:20.513Z,14.87
2023-02-03T00:08:49.195Z,15.30
2023-02-03T00:11:17.276Z,14.90
2023-02-03T00:13:45.317Z,15.20
2023-02-03T00:16:13.539Z,13.77
2023-02-03T00:18:41.601Z,13.90
2023-02-03T00:21:09.610Z,12.97
2023-02-03T00:23:39.006Z,12.77
2023-02-03T00:26:10.517Z,12.70
2023-02-03T00:28:40.232Z,11.27
2023-02-03T00:31:15.236Z,11.63
2023-02-03T00:33:43.316Z,12.50
2023-02-03T00:36:12.849Z,11.93
2023-02-03T00:38:42.349Z,12.40
2023-02-03T00:41:11.147Z,10.40
2023-02-03T00:43:39.222Z,11.37
2023-02-03T00:46:07.288Z,11.00
2023-02-03T00:48:36.600Z,10.67
2023-02-03T00:51:05.013Z,10.00
2023-02-03T00:53:33.307Z,9.10
2023-02-03T00:56:03.752Z,8.20
2023-02-03T00:58:31.827Z,9.00
2023-02-03T01:00:59.922Z,8.87
2023-02-03T01:03:27.933Z,8.40
2023-02-03T01:05:55.963Z,8.70
2023-02-03T01:08:24.256Z,8.50
2023-02-03T01:10:52.350Z,7.30
2023-02-03T01:13:21.684Z,7.33
2023-02-03T01:15:49.827Z,7.37
2023-02-03T01:18:17.930Z,7.03
2023-02-03T01:20:46.024Z,6.90
2023-02-03T01:23:14.058Z,7.83
2023-02-03T01:25:42.109Z,6.87
2023-02-03T01:28:10.197Z,6.40
2023-02-03T01:30:39.741Z,6.03
2023-02-03T01:33:07.875Z,6.43
2023-02-03T01:35:36.400Z,7.13
2023-02-03T01:38:04.510Z,6.43
2023-02-03T01:40:33.116Z,7.07
2023-02-03T01:43:01.387Z,7.73
2023-02-03T01:45:29.423Z,7.43
2023-02-03T01:48:00.427Z,7.60
2023-02-03T01:50:32.511Z,7.47
2023-02-03T01:53:04.623Z,7.73
2023-02-03T01:55:35.956Z,8.37
2023-02-03T01:58:07.773Z,7.57
2023-02-03T02:00:36.172Z,8.80
2023-02-03T02:03:06.970Z,9.20
2023-02-03T02:05:39.955Z,8.37
2023-02-03T02:08:09.909Z,8.43
2023-02-03T02:10:38.167Z,9.03
2023-02-03T02:13:07.655Z,8.40
2023-02-03T02:15:46.649Z,8.13
2023-02-03T02:18:29.546Z,8.13
2023-02-03T02:21:20.245Z,9.10
2023-02-03T02:24:37.757Z,8.60
2023-02-03T02:27:10.850Z,7.47
2023-02-03T02:30:11.402Z,6.77
2023-02-03T02:32:54.709Z,6.87
2023-02-03T02:35:33.507Z,6.33
2023-02-03T02:38:06.397Z,6.37
2023-02-03T02:40:38.865Z,6.27
2023-02-03T02:43:14.367Z,6.17
2023-02-03T02:45:49.156Z,6.30
2023-02-03T02:48:23.776Z,5.60
2023-02-03T02:50:56.301Z,5.77
2023-02-03T02:53:29.805Z,5.93
2023-02-03T02:55:59.782Z,5.63
2023-02-03T02:58:30.413Z,5.17
2023-02-03T03:00:59.128Z,5.17
2023-02-03T03:03:28.996Z,5.20
2023-02-03T03:06:00.841Z,5.53
2023-02-03T03:08:40.114Z,5.60
2023-02-03T03:11:08.477Z,5.50
2023-02-03T03:13:40.111Z,5.63
2023-02-03T03:16:11.453Z,5.10
2023-02-03T03:18:45.037Z,6.00
2023-02-03T03:21:18.181Z,5.47
2023-02-03T03:23:51.267Z,6.47
2023-02-03T03:26:24.712Z,6.10
2023-02-03T03:28:59.043Z,5.50
2023-02-03T03:31:27.210Z,6.00
2023-02-03T03:33:56.960Z,6.47
2023-02-03T03:36:28.911Z,6.57
2023-02-03T03:39:03.019Z,6.20
2023-02-03T03:41:40.988Z,5.80
2023-02-03T03:44:13.641Z,6.50
2023-02-03T03:46:46.281Z,6.97
2023-02-03T03:49:16.798Z,6.07
2023-02-03T03:51:49.726Z,6.30
2023-02-03T03:54:21.587Z,5.50
2023-02-03T03:56:54.461Z,6.50
2023-02-03T03:59:25.354Z,6.73
2023-02-03T04:01:54.203Z,6.87
2023-02-03T04:04:26.873Z,6.90
2023-02-03T04:06:55.668Z,7.30
2023-02-03T04:09:23.739Z,6.80
2023-02-03T04:12:05.595Z,7.70
2023-02-03T04:14:35.626Z,6.97
2023-02-03T04:17:03.778Z,7.20
2023-02-03T04:19:33.576Z,7.53
2023-02-03T04:22:01.682Z,7.93
2023-02-03T04:24:29.777Z,8.10
2023-02-03T04:26:57.900Z,7.50
2023-02-03T04:29:25.988Z,6.57
2023-02-03T04:31:54.122Z,6.70
2023-02-03T04:34:22.244Z,6.90
2023-02-03T04:36:51.675Z,7.30
2023-02-03T04:39:19.730Z,6.50
2023-02-03T04:41:47.776Z,5.90
2023-02-03T04:44:15.883Z,6.13
2023-02-03T04:46:43.931Z,7.07
2023-02-03T04:49:12.140Z,6.40
2023-02-03T04:51:40.183Z,6.43
2023-02-03T04:54:09.813Z,6.50
2023-02-03T04:56:38.570Z,6.40
2023-02-03T04:59:06.574Z,5.70
2023-02-03T05:01:34.704Z,6.13
2023-02-03T05:04:02.768Z,5.07
2023-02-03T05:06:32.081Z,5.90
2023-02-03T05:09:00.453Z,5.50
2023-02-03T05:11:30.377Z,5.93
2023-02-03T05:13:58.698Z,5.30
2023-02-03T05:16:26.867Z,6.10
2023-02-03T05:18:54.936Z,5.50
2023-02-03T05:21:23.083Z,6.03
2023-02-03T05:23:51.131Z,6.10
2023-02-03T05:26:19.144Z,5.90
2023-02-03T05:28:48.589Z,5.40
2023-02-03T05:31:16.631Z,5.50
2023-02-03T05:33:44.728Z,6.37
2023-02-03T05:36:12.805Z,6.00
2023-02-03T05:38:42.427Z,5.50
2023-02-03T05:41:29.284Z,5.43
2023-02-03T05:43:58.683Z,5.57
2023-02-03T05:46:26.691Z,6.00
2023-02-03T05:48:54.775Z,5.63
2023-02-03T05:51:22.821Z,5.30
2023-02-03T05:53:50.834Z,5.40
2023-02-03T05:56:18.872Z,5.43
2023-02-03T05:58:46.894Z,5.43
2023-02-03T06:01:16.281Z,5.60
2023-02-03T06:03:46.179Z,6.17
2023-02-03T06:06:14.851Z,5.20
2023-02-03T06:08:43.112Z,5.90
2023-02-03T06:11:11.994Z,6.60
2023-02-03T06:13:39.988Z,6.13
2023-02-03T06:16:08.268Z,6.40
2023-02-03T06:18:37.700Z,6.73
2023-02-03T06:21:06.107Z,6.20
2023-02-03T06:23:34.150Z,7.30
2023-02-03T06:26:02.191Z,6.30
2023-02-03T06:28:30.214Z,7.23
2023-02-03T06:30:58.370Z,7.77
2023-02-03T06:33:26.579Z,6.83
2023-02-03T06:35:56.435Z,7.20
2023-02-03T06:38:24.723Z,6.37
2023-02-03T06:40:52.908Z,6.27
2023-02-03T06:43:20.948Z,6.50
2023-02-03T06:45:49.421Z,6.73
2023-02-03T06:48:17.538Z,6.53
2023-02-03T06:50:48.559Z,6.50
2023-02-03T06:53:18.395Z,5.23
2023-02-03T06:55:47.888Z,5.00
2023-02-03T06:58:16.249Z,5.70
2023-02-03T07:00:44.380Z,6.03
2023-02-03T07:03:12.435Z,5.47
2023-02-03T07:05:40.763Z,5.43
2023-02-03T07:08:08.952Z,5.20
2023-02-03T07:10:38.574Z,5.60
2023-02-03T07:13:07.640Z,4.93
2023-02-03T07:15:35.858Z,5.70
2023-02-03T07:18:06.828Z,5.20
2023-02-03T07:20:34.878Z,4.93
2023-02-03T07:23:02.891Z,5.53
2023-02-03T07:25:32.459Z,5.33
2023-02-03T07:28:01.947Z,4.40
2023-02-03T07:30:30.363Z,4.70
2023-02-03T07:32:58.755Z,5.03
2023-02-03T07:35:27.229Z,5.70
2023-02-03T07:37:55.530Z,4.83
2023-02-03T07:40:23.609Z,4.67
2023-02-03T07:42:51.844Z,5.13
2023-02-03T07:45:22.172Z,4.90
2023-02-03T07:47:50.168Z,4.67
2023-02-03T07:50:18.461Z,4.70
2023-02-03T07:52:46.447Z,4.83
2023-02-03T07:55:14.476Z,4.33
2023-02-03T07:57:43.600Z,4.73
2023-02-03T08:00:14.376Z,4.83
2023-02-03T08:02:44.420Z,4.57
2023-02-03T08:05:13.331Z,4.87
2023-02-03T08:07:42.241Z,5.00
2023-02-03T08:10:11.460Z,5.13
2023-02-03T08:12:39.684Z,5.13
2023-02-03T08:15:08.785Z,4.90
2023-02-03T08:17:36.902Z,5.17
2023-02-03T08:20:07.373Z,4.50
2023-02-03T08:22:35.445Z,4.80
2023-02-03T08:25:03.937Z,4.67
2023-02-03T08:27:33.872Z,5.00
2023-02-03T08:30:02.062Z,5.33
2023-02-03T08:32:30.069Z,5.40
2023-02-03T08:34:58.076Z,4.47
2023-02-03T08:37:28.294Z,4.03
2023-02-03T08:39:56.512Z,4.13
2023-02-03T08:42:24.559Z,3.90
2023-02-03T08:44:52.822Z,4.80
2023-02-03T08:47:20.865Z,4.93
2023-02-03T08:49:48.932Z,4.87
2023-02-03T08:52:19.133Z,5.00
2023-02-03T08:54:49.071Z,6.20
2023-02-03T08:57:17.408Z,4.77
2023-02-03T08:59:45.938Z,5.23
2023-02-03T09:02:17.545Z,6.70
2023-02-03T09:04:47.454Z,5.90
2023-02-03T09:07:16.705Z,5.87
2023-02-03T09:09:44.841Z,5.90
2023-02-03T09:12:14.341Z,6.00
2023-02-03T09:14:42.408Z,4.50
2023-02-03T09:17:12.700Z,4.30
2023-02-03T09:19:40.764Z,3.70
2023-02-03T09:22:08.858Z,4.73
2023-02-03T09:24:37.740Z,4.00
2023-02-03T09:27:05.921Z,4.33
2023-02-03T09:29:35.296Z,4.20
2023-02-03T09:32:07.935Z,3.97
2023-02-03T09:34:36.010Z,4.37
2023-02-03T09:37:04.590Z,3.87
2023-02-03T09:39:32.848Z,4.27
2023-02-03T09:42:36.457Z,4.67
2023-02-03T09:45:19.049Z,4.80
2023-02-03T09:47:53.995Z,5.17
2023-02-03T09:50:25.347Z,6.40
2023-02-03T09:52:54.342Z,5.23
2023-02-03T09:55:29.099Z,5.30
2023-02-03T09:58:04.377Z,5.40
2023-02-03T10:00:37.672Z,5.87
2023-02-03T10:03:10.322Z,5.80
2023-02-03T10:05:54.441Z,6.90
2023-02-03T10:08:32.915Z,5.40
2023-02-03T10:11:11.098Z,5.40
2023-02-03T10:13:53.531Z,6.83
2023-02-03T10:16:53.580Z,6.90
2023-02-03T10:19:26.872Z,6.90
2023-02-03T10:21:59.211Z,6.60
2023-02-03T10:24:41.064Z,6.47
2023-02-03T10:27:17.951Z,6.87
2023-02-03T10:29:50.324Z,6.23
2023-02-03T10:32:19.772Z,6.90
2023-02-03T10:34:49.405Z,6.83
2023-02-03T10:37:29.310Z,7.03
2023-02-03T10:39:59.405Z,7.20
2023-02-03T10:42:48.689Z,7.30
2023-02-03T10:45:17.232Z,8.00
2023-02-03T10:47:51.432Z,5.70
2023-02-03T10:50:22.112Z,6.53
2023-02-03T10:52:50.298Z,6.73
2023-02-03T10:55:32.697Z,7.50
2023-02-03T10:58:12.403Z,6.10
2023-02-03T11:00:40.997Z,7.13
2023-02-03T11:03:24.043Z,6.30
2023-02-03T11:06:06.162Z,5.30
2023-02-03T11:08:36.060Z,6.30
2023-02-03T11:11:06.005Z,7.07
2023-02-03T11:13:34.279Z,7.03
2023-02-03T11:16:04.707Z,5.27
2023-02-03T11:18:56.766Z,6.20
2023-02-03T11:21:27.813Z,6.93
2023-02-03T11:24:01.599Z,7.07
2023-02-03T11:26:33.186Z,6.30
2023-02-03T11:29:03.516Z,7.30
2023-02-03T11:31:34.507Z,5.90
2023-02-03T11:34:07.267Z,5.80
2023-02-03T11:36:36.756Z,6.93
2023-02-03T11:39:12.194Z,6.20
2023-02-03T11:41:41.315Z,6.37
2023-02-03T11:44:14.208Z,6.70
2023-02-03T11:46:43.415Z,5.77
2023-02-03T11:49:30.315Z,7.27
2023-02-03T11:52:05.771Z,6.43
2023-02-03T11:54:44.186Z,6.67
2023-02-03T11:57:30.416Z,6.40
2023-02-03T12:00:13.520Z,6.43
2023-02-03T12:03:22.122Z,6.17
2023-02-03T12:06:18.684Z,6.63
2023-02-03T12:09:09.177Z,7.60
2023-02-03T12:12:01.311Z,6.67
2023-02-03T12:14:44.812Z,5.93
2023-02-03T12:17:40.136Z,5.53
2023-02-03T12:20:24.318Z,5.30
2023-02-03T12:23:00.834Z,6.37
2023-02-03T12:25:38.408Z,5.00
2023-02-03T12:28:32.451Z,5.37
2023-02-03T12:31:08.616Z,6.10
2023-02-03T12:33:44.355Z,6.17
2023-02-03T12:36:17.236Z,5.80
2023-02-03T12:38:54.142Z,6.80
2023-02-03T12:41:27.661Z,6.50
2023-02-03T12:44:00.862Z,5.10
2023-02-03T12:46:32.193Z,6.87
2023-02-03T12:49:06.230Z,6.20
2023-02-03T12:51:40.391Z,5.40
2023-02-03T12:54:26.370Z,5.27
2023-02-03T12:56:58.994Z,5.07
2023-02-03T12:59:31.381Z,5.43
2023-02-03T13:02:02.584Z,5.60
2023-02-03T13:04:38.099Z,4.90
2023-02-03T13:07:17.837Z,5.37
2023-02-03T13:09:53.601Z,6.07
2023-02-03T13:12:30.298Z,6.17
2023-02-03T13:15:07.475Z,5.43
2023-02-03T13:17:44.170Z,5.47
2023-02-03T13:20:20.125Z,6.20
2023-02-03T13:22:48.450Z,5.60
2023-02-03T13:25:24.550Z,6.70
2023-02-03T13:28:03.801Z,6.40
2023-02-03T13:30:51.274Z,7.13
2023-02-03T13:33:46.841Z,6.17
2023-02-03T13:36:40.382Z,6.03
2023-02-03T13:39:37.834Z,7.10
2023-02-03T13:42:20.739Z,6.23
2023-02-03T13:44:52.087Z,5.20
2023-02-03T13:47:24.948Z,5.30
2023-02-03T13:49:56.663Z,6.27
2023-02-03T13:52:33.600Z,5.70
2023-02-03T13:55:02.785Z,5.87
2023-02-03T13:57:35.591Z,6.33
2023-02-03T14:00:06.084Z,5.70
2023-02-03T14:02:52.726Z,5.40
2023-02-03T14:05:40.836Z,4.90
2023-02-03T14:08:52.501Z,5.40
2023-02-03T14:11:43.387Z,5.93
2023-02-03T14:14:44.858Z,5.83
2023-02-03T14:18:03.736Z,4.90
2023-02-03T14:20:57.716Z,5.43
2023-02-03T14:23:42.653Z,6.60
2023-02-03T14:26:24.755Z,4.63
2023-02-03T14:28:54.038Z,5.80
2023-02-03T14:31:25.212Z,5.57
2023-02-03T14:34:12.856Z,5.43
2023-02-03T14:36:56.362Z,5.40
2023-02-03T14:39:55.301Z,5.80
2023-02-03T14:42:40.586Z,6.40
2023-02-03T14:45:22.050Z,6.20
2023-02-03T14:48:03.016Z,5.93
2023-02-03T14:50:45.192Z,6.50
2023-02-03T14:53:35.109Z,6.43
2023-02-03T14:56:18.210Z,6.57
2023-02-03T14:58:49.299Z,6.00
2023-02-03T15:01:47.876Z,6.00
2023-02-03T15:04:25.145Z,6.60
2023-02-03T15:06:54.666Z,5.60
2023-02-03T15:09:29.639Z,6.10
2023-02-03T15:11:57.841Z,6.27
2023-02-03T15:14:27.550Z,5.97
2023-02-03T15:16:59.241Z,5.93
2023-02-03T15:19:30.783Z,5.57
2023-02-03T15:21:59.205Z,5.97
2023-02-03T15:24:27.337Z,6.57
2023-02-03T15:26:57.024Z,7.00
2023-02-03T15:29:29.095Z,6.20
2023-02-03T15:32:07.945Z,6.03
2023-02-03T15:34:40.626Z,6.60
2023-02-03T15:37:16.205Z,8.20
2023-02-03T15:39:52.947Z,8.10
2023-02-03T15:42:26.002Z,5.73
2023-02-03T15:44:59.107Z,6.50
2023-02-03T15:47:32.566Z,7.50
2023-02-03T15:50:07.851Z,7.17
2023-02-03T15:52:40.270Z,8.30
2023-02-03T15:55:19.481Z,6.97
2023-02-03T15:57:49.932Z,8.87
2023-02-03T16:00:42.088Z,8.27
2023-02-03T16:03:19.962Z,7.30
2023-02-03T16:05:50.424Z,8.13
2023-02-03T16:08:39.777Z,8.20
2023-02-03T16:11:23.216Z,8.77
2023-02-03T16:13:51.858Z,8.60
2023-02-03T16:16:23.244Z,7.73
2023-02-03T16:18:54.047Z,6.93
2023-02-03T16:21:53.214Z,6.87
2023-02-03T16:24:42.507Z,6.80
2023-02-03T16:27:40.321Z,7.70
2023-02-03T16:30:42.186Z,6.93
2023-02-03T16:33:35.172Z,6.60
2023-02-03T16:36:28.681Z,7.43
2023-02-03T16:39:19.705Z,6.90
2023-02-03T16:42:05.663Z,7.37
2023-02-03T16:44:51.238Z,7.03
2023-02-03T16:47:43.561Z,7.10
2023-02-03T16:50:38.639Z,6.60
2023-02-03T16:53:07.463Z,6.93
2023-02-03T16:55:37.063Z,7.53
2023-02-03T16:58:05.199Z,7.10
2023-02-03T17:00:33.266Z,6.93
2023-02-03T17:03:05.128Z,7.13
2023-02-03T17:05:37.396Z,7.57
2023-02-03T17:08:05.740Z,7.87
2023-02-03T17:10:36.334Z,6.90
2023-02-03T17:13:05.048Z,7.90
2023-02-03T17:15:33.262Z,7.47
2023-02-03T17:18:01.640Z,8.70
2023-02-03T17:20:29.833Z,7.27
2023-02-03T17:22:58.004Z,7.70
2023-02-03T17:25:26.365Z,7.07
2023-02-03T17:27:55.880Z,8.03
2023-02-03T17:30:24.013Z,7.10
2023-02-03T17:32:52.060Z,6.83
2023-02-03T17:35:20.210Z,7.70
2023-02-03T17:37:48.500Z,7.57
2023-02-03T17:54:11.784Z,8.50
2023-02-03T17:56:39.911Z,7.63
2023-02-03T17:59:10.581Z,8.53
2023-02-03T18:01:38.903Z,8.20
2023-02-03T18:04:08.797Z,5.70
2023-02-03T18:06:36.893Z,6.80
2023-02-03T18:09:06.169Z,8.17
2023-02-03T18:11:35.876Z,6.60
2023-02-03T18:14:05.031Z,7.40
2023-02-03T18:16:36.138Z,7.40
2023-02-03T18:19:06.101Z,7.70
2023-02-03T18:21:36.502Z,7.30
2023-02-03T18:24:06.492Z,7.57
2023-02-03T18:26:37.178Z,8.03
2023-02-03T18:29:06.482Z,7.50
2023-02-03T18:31:37.472Z,7.37
2023-02-03T18:34:05.534Z,7.67
2023-02-03T18:36:33.866Z,8.87
2023-02-03T18:39:01.967Z,7.10
2023-02-03T18:41:30.014Z,8.47
2023-02-03T18:43:58.043Z,7.00
2023-02-03T18:46:28.163Z,7.83
2023-02-03T18:48:57.624Z,7.20
2023-02-03T18:51:27.281Z,8.60
2023-02-03T18:53:58.105Z,8.10
2023-02-03T18:56:34.792Z,9.10
2023-02-03T18:59:05.696Z,9.80
2023-02-03T19:01:33.948Z,8.20
2023-02-03T19:04:04.688Z,8.33
2023-02-03T19:06:35.199Z,8.43
2023-02-03T19:09:05.327Z,7.87
2023-02-03T19:11:35.022Z,8.43
2023-02-03T19:14:03.223Z,7.97
2023-02-03T19:16:31.553Z,8.40
2023-02-03T19:18:59.666Z,7.43
2023-02-03T19:21:29.060Z,8.50
2023-02-03T19:23:57.126Z,7.93
2023-02-03T19:26:25.241Z,9.10
2023-02-03T19:28:53.279Z,8.03
2023-02-03T19:31:21.580Z,7.90
2023-02-03T19:33:49.814Z,8.70
2023-02-03T19:36:17.960Z,7.10
2023-02-03T19:38:47.338Z,7.60
2023-02-03T19:41:15.380Z,8.10
2023-02-03T19:43:43.454Z,8.80
2023-02-03T19:46:13.595Z,8.00
2023-02-03T19:48:41.689Z,7.43
2023-02-03T19:51:10.642Z,8.10
2023-02-03T19:53:38.769Z,7.07
2023-02-03T19:56:08.510Z,7.67
2023-02-03T19:58:36.600Z,7.30
2023-02-03T20:01:05.377Z,8.97
2023-02-03T20:03:33.604Z,7.27
2023-02-03T20:06:01.636Z,8.27
2023-02-03T20:08:29.691Z,6.67
2023-02-03T20:10:57.757Z,7.30
2023-02-03T20:13:27.494Z,8.50
2023-02-03T20:15:55.767Z,9.67
2023-02-03T20:18:24.071Z,7.87
2023-02-03T20:20:52.503Z,7.13
2023-02-03T20:23:20.839Z,8.60
2023-02-03T20:25:50.155Z,8.60
2023-02-03T20:28:18.711Z,8.90
2023-02-03T20:30:51.232Z,8.93
2023-02-03T20:33:19.435Z,8.93
2023-02-03T20:35:47.488Z,8.17
2023-02-03T20:38:16.541Z,8.83
2023-02-03T20:40:45.896Z,8.30
2023-02-03T20:43:17.433Z,8.93
2023-02-03T20:45:49.446Z,9.53
2023-02-03T20:48:19.698Z,7.60
2023-02-03T20:50:48.528Z,9.37
2023-02-03T20:53:18.407Z,9.13
2023-02-03T20:55:46.702Z,8.60
2023-02-03T20:58:19.904Z,9.20
2023-02-03T21:00:49.604Z,9.27
2023-02-03T21:03:39.222Z,8.90
2023-02-03T21:06:14.565Z,8.20
2023-02-03T21:08:43.149Z,8.70
2023-02-03T21:11:13.625Z,9.20
2023-02-03T21:13:43.517Z,8.43
2023-02-03T21:16:18.867Z,8.43
2023-02-03T21:18:51.855Z,9.37
2023-02-03T21:21:24.827Z,9.70
2023-02-03T21:23:54.094Z,9.83
2023-02-03T21:26:24.183Z,10.20
2023-02-03T21:28:54.067Z,9.47
2023-02-03T21:31:28.988Z,9.83
2023-02-03T21:33:58.787Z,10.07
2023-02-03T21:36:28.917Z,9.43
2023-02-03T21:38:59.119Z,10.10
2023-02-03T21:41:33.091Z,10.67
2023-02-03T21:44:01.802Z,10.10
2023-02-03T21:46:35.634Z,10.07
2023-02-03T21:49:04.982Z,10.70
2023-02-03T21:51:36.261Z,11.03
2023-02-03T21:54:19.904Z,10.10
2023-02-03T21:56:47.956Z,8.77
2023-02-03T21:59:19.099Z,10.50
2023-02-03T22:01:49.138Z,8.80
2023-02-03T22:04:17.492Z,9.37
2023-02-03T22:06:49.076Z,9.60
2023-02-03T22:09:18.751Z,10.07
2023-02-03T22:11:47.203Z,9.30
2023-02-03T22:14:16.723Z,9.13
2023-02-03T22:16:45.352Z,9.50
2023-02-03T22:19:17.393Z,9.90
2023-02-03T22:21:47.663Z,10.90
2023-02-03T22:24:15.774Z,10.73
2023-02-03T22:26:43.783Z,11.47
2023-02-03T22:29:11.843Z,9.70
2023-02-03T22:31:41.596Z,11.20
2023-02-03T22:34:10.079Z,9.10
2023-02-03T22:36:39.519Z,11.10
2023-02-03T22:39:07.560Z,10.10
2023-02-03T22:41:35.566Z,10.77
2023-02-03T22:44:04.039Z,9.53
2023-02-03T22:46:32.082Z,7.70
2023-02-03T22:49:00.108Z,7.80
2023-02-03T22:51:28.137Z,7.23
2023-02-03T22:53:57.603Z,8.77
2023-02-03T22:56:25.595Z,7.07
2023-02-03T22:58:53.660Z,7.90
2023-02-03T23:01:21.685Z,8.07
2023-02-03T23:03:49.671Z,7.60
2023-02-03T23:06:17.715Z,8.67
2023-02-03T23:08:45.680Z,8.00
2023-02-03T23:11:15.030Z,7.30
2023-02-03T23:13:43.014Z,4.90
2023-02-03T23:16:11.302Z,6.20
2023-02-03T23:18:39.510Z,6.37
2023-02-03T23:21:07.492Z,5.60
2023-02-03T23:23:35.461Z,4.80
2023-02-03T23:26:03.587Z,5.40
2023-02-03T23:28:32.949Z,4.70
2023-02-03T23:31:01.098Z,3.90
2023-02-03T23:33:29.225Z,4.37
2023-02-03T23:35:56.305Z,5.17
2023-02-03T23:38:24.362Z,3.80
2023-02-03T23:40:54.113Z,4.70
2023-02-03T23:43:22.413Z,3.73
2023-02-03T23:45:52.004Z,4.20
2023-02-03T23:48:20.050Z,4.67
2023-02-03T23:50:49.047Z,4.17
2023-02-03T23:53:17.103Z,4.73
2023-02-03T23:55:45.095Z,5.13
2023-02-03T23:58:13.186Z,4.20
